createdAt,value
2022-09-18T00:00:29.110Z,5.90
2022-09-18T00:05:30.830Z,7.65
2022-09-18T00:10:32.474Z,6.22
2022-09-18T00:15:34.359Z,6.85
2022-09-18T00:20:37.203Z,5.47
2022-09-18T00:25:38.834Z,6.60
2022-09-18T00:30:40.465Z,5.50
2022-09-18T00:35:43.582Z,8.88
2022-09-18T00:40:45.265Z,7.30
2022-09-18T00:45:53.930Z,6.78
2022-09-18T00:50:55.664Z,5.93
2022-09-18T00:56:00.021Z,4.47
2022-09-18T01:01:02.605Z,8.13
2022-09-18T01:06:10.684Z,4.80
2022-09-18T01:11:37.152Z,6.40
2022-09-18T01:17:17.135Z,5.75
2022-09-18T01:22:53.215Z,7.38
2022-09-18T01:28:22.948Z,5.75
2022-09-18T01:33:31.061Z,5.75
2022-09-18T01:38:37.223Z,5.57
2022-09-18T01:43:40.885Z,8.18
2022-09-18T01:49:02.939Z,6.15
2022-09-18T01:54:08.914Z,6.15
2022-09-18T01:59:16.698Z,5.07
2022-09-18T02:04:27.522Z,3.10
2022-09-18T02:09:29.833Z,7.43
2022-09-18T02:14:42.605Z,5.00
2022-09-18T02:20:10.162Z,7.30
2022-09-18T02:25:15.669Z,7.40
2022-09-18T02:30:17.514Z,3.83
2022-09-18T02:35:19.228Z,3.42
2022-09-18T02:40:37.919Z,6.13
2022-09-18T02:46:23.104Z,3.08
2022-09-18T02:51:29.020Z,5.10
2022-09-18T02:56:52.806Z,4.68
2022-09-18T03:01:56.812Z,6.20
2022-09-18T03:06:58.710Z,6.03
2022-09-18T03:12:02.157Z,4.70
2022-09-18T03:17:04.118Z,6.18
2022-09-18T03:22:05.991Z,6.50
2022-09-18T03:27:07.681Z,5.25
2022-09-18T03:32:09.367Z,5.13
2022-09-18T03:37:11.038Z,3.97
2022-09-18T03:42:12.667Z,9.63
2022-09-18T03:47:14.740Z,6.15
2022-09-18T03:52:16.384Z,8.15
2022-09-18T03:57:18.010Z,11.13
2022-09-18T04:02:19.668Z,7.13
2022-09-18T04:07:21.362Z,5.93
2022-09-18T04:12:23.137Z,5.30
2022-09-18T04:17:25.010Z,5.43
2022-09-18T04:22:26.630Z,5.25
2022-09-18T04:27:28.349Z,6.47
2022-09-18T04:32:30.026Z,5.32
2022-09-18T04:37:31.678Z,6.50
2022-09-18T04:42:33.310Z,6.47
2022-09-18T04:47:37.651Z,6.00
2022-09-18T04:52:39.322Z,5.05
2022-09-18T04:57:41.708Z,7.32
2022-09-18T05:02:43.665Z,6.13
2022-09-18T05:07:45.404Z,7.15
2022-09-18T05:12:48.085Z,10.70
2022-09-18T05:17:59.059Z,9.75
2022-09-18T05:23:01.074Z,7.07
2022-09-18T05:28:03.804Z,4.00
2022-09-18T05:33:07.462Z,2.88
2022-09-18T05:38:11.542Z,4.68
2022-09-18T05:43:13.316Z,5.45
2022-09-18T05:48:15.023Z,3.20
2022-09-18T05:53:19.040Z,4.20
2022-09-18T05:58:21.329Z,4.72
2022-09-18T06:03:23.173Z,2.83
2022-09-18T06:08:36.204Z,5.05
2022-09-18T06:13:37.972Z,5.65
2022-09-18T06:18:39.677Z,6.80
2022-09-18T06:23:42.661Z,3.45
2022-09-18T06:28:46.458Z,3.58
2022-09-18T06:33:49.028Z,5.07
2022-09-18T06:38:50.829Z,5.55
2022-09-18T06:43:52.485Z,7.95
2022-09-18T06:48:54.146Z,6.18
2022-09-18T06:53:55.893Z,3.13
2022-09-18T06:58:57.493Z,4.63
2022-09-18T07:03:59.287Z,2.92
2022-09-18T07:09:01.067Z,3.53
2022-09-18T07:14:09.282Z,3.17
2022-09-18T07:19:11.547Z,4.78
2022-09-18T07:24:13.177Z,2.95
2022-09-18T07:29:14.822Z,2.80
2022-09-18T07:34:16.570Z,2.45
2022-09-18T07:39:18.221Z,3.92
2022-09-18T07:44:19.859Z,4.03
2022-09-18T07:49:21.553Z,3.95
2022-09-18T07:54:23.333Z,4.32
2022-09-18T07:59:24.972Z,4.07
2022-09-18T08:04:26.594Z,4.05
2022-09-18T08:09:28.275Z,4.78
2022-09-18T08:14:30.157Z,7.35
2022-09-18T08:19:32.015Z,7.15
2022-09-18T08:24:33.730Z,4.97
2022-09-18T08:29:35.370Z,5.65
2022-09-18T08:34:37.479Z,4.82
2022-09-18T08:39:39.190Z,3.30
2022-09-18T08:44:55.000Z,4.70
2022-09-18T08:50:12.408Z,3.63
2022-09-18T08:55:31.172Z,6.85
2022-09-18T09:00:45.922Z,5.05
2022-09-18T09:05:52.668Z,5.70
2022-09-18T09:11:17.787Z,3.58
2022-09-18T09:17:04.011Z,1.60
2022-09-18T09:22:18.007Z,4.13
2022-09-18T09:27:35.034Z,3.50
2022-09-18T09:33:13.106Z,2.58
2022-09-18T09:38:23.849Z,4.25
2022-09-18T09:43:39.136Z,2.83
2022-09-18T09:49:12.816Z,3.42
2022-09-18T09:54:14.524Z,5.18
2022-09-18T09:59:53.707Z,6.70
2022-09-18T10:04:58.138Z,4.18
2022-09-18T10:10:22.108Z,2.65
2022-09-18T10:15:38.194Z,5.78
2022-09-18T10:20:41.195Z,3.03
2022-09-18T10:25:52.224Z,1.17
2022-09-18T10:31:05.206Z,3.65
2022-09-18T10:36:25.932Z,3.00
2022-09-18T10:41:39.274Z,1.52
2022-09-18T10:46:57.731Z,4.70
2022-09-18T10:52:31.811Z,3.33
2022-09-18T10:57:35.874Z,0.90
2022-09-18T11:03:04.112Z,2.90
2022-09-18T11:08:16.382Z,2.67
2022-09-18T11:13:24.408Z,1.75
2022-09-18T11:18:27.048Z,1.30
2022-09-18T11:23:36.658Z,1.50
2022-09-18T11:28:39.742Z,1.83
2022-09-18T11:33:49.056Z,2.60
2022-09-18T11:38:50.758Z,2.72
2022-09-18T11:44:24.189Z,3.25
2022-09-18T11:49:34.562Z,1.45
2022-09-18T11:54:43.823Z,2.15
2022-09-18T11:59:54.947Z,2.75
2022-09-18T12:05:20.225Z,2.90
2022-09-18T12:10:33.389Z,1.50
2022-09-18T12:15:37.479Z,2.75
2022-09-18T12:20:40.158Z,1.00
2022-09-18T12:26:07.060Z,1.48
2022-09-18T12:31:23.788Z,1.23
2022-09-18T12:36:44.440Z,2.40
2022-09-18T12:42:25.088Z,3.47
2022-09-18T12:48:09.037Z,1.50
2022-09-18T12:54:07.479Z,1.58
2022-09-18T12:59:31.841Z,1.80
2022-09-18T13:04:38.576Z,0.95
2022-09-18T13:09:52.041Z,1.00
2022-09-18T13:15:03.084Z,1.75
2022-09-18T13:20:15.892Z,2.65
2022-09-18T13:25:29.355Z,2.15
2022-09-18T13:30:32.122Z,1.00
2022-09-18T13:35:37.362Z,2.88
2022-09-18T13:40:55.715Z,2.53
2022-09-18T13:46:02.463Z,1.60
2022-09-18T13:51:18.793Z,1.38
2022-09-18T13:56:20.515Z,1.17
2022-09-18T14:01:40.818Z,1.67
2022-09-18T14:06:45.331Z,1.50
2022-09-18T14:11:47.236Z,1.98
2022-09-18T14:16:50.743Z,0.98
2022-09-18T14:21:52.742Z,1.40
2022-09-18T14:27:22.603Z,1.30
2022-09-18T14:32:26.292Z,1.02
2022-09-18T14:37:34.992Z,1.17
2022-09-18T14:42:45.773Z,1.35
2022-09-18T14:47:48.680Z,1.83
2022-09-18T14:52:50.556Z,1.90
2022-09-18T14:58:05.940Z,0.82
2022-09-18T15:03:24.559Z,2.05
2022-09-18T15:08:26.892Z,1.33
2022-09-18T15:13:50.564Z,0.73
2022-09-18T15:18:52.230Z,1.92
2022-09-18T15:23:55.719Z,1.17
2022-09-18T15:28:59.565Z,1.80
2022-09-18T15:34:29.076Z,2.13
2022-09-18T15:39:40.157Z,2.47
2022-09-18T15:44:51.884Z,1.27
2022-09-18T15:49:53.916Z,1.80
2022-09-18T15:55:06.391Z,1.55
2022-09-18T16:00:16.810Z,0.85
2022-09-18T16:05:18.777Z,2.05
2022-09-18T16:10:36.130Z,1.00
2022-09-18T16:15:38.085Z,2.38
2022-09-18T16:20:45.818Z,3.00
2022-09-18T16:26:24.671Z,1.40
2022-09-18T16:31:28.977Z,2.17
2022-09-18T16:36:38.260Z,1.95
2022-09-18T16:41:40.351Z,8.50
2022-09-18T16:46:51.169Z,1.92
2022-09-18T16:51:55.597Z,1.98
2022-09-18T16:57:10.896Z,1.20
2022-09-18T17:02:16.218Z,1.77
2022-09-18T17:07:17.873Z,1.10
2022-09-18T17:12:19.729Z,1.23
2022-09-18T17:17:21.386Z,0.75
2022-09-18T17:22:24.112Z,1.55
2022-09-18T17:27:26.285Z,2.30
2022-09-18T17:32:28.010Z,1.00
2022-09-18T17:37:30.932Z,2.40
2022-09-18T17:42:33.466Z,1.60
2022-09-18T17:47:35.080Z,1.13
2022-09-18T17:52:36.787Z,0.75
2022-09-18T17:57:39.283Z,2.33
2022-09-18T18:02:43.830Z,1.88
2022-09-18T18:07:45.474Z,1.95
2022-09-18T18:12:47.214Z,1.02
2022-09-18T18:17:49.433Z,2.28
2022-09-18T18:22:51.136Z,1.20
2022-09-18T18:27:55.177Z,1.00
2022-09-18T18:32:57.780Z,1.23
2022-09-18T18:37:59.454Z,2.45
2022-09-18T18:43:01.496Z,1.95
2022-09-18T18:48:03.174Z,1.33
2022-09-18T18:53:04.777Z,2.10
2022-09-18T18:58:06.467Z,1.90
2022-09-18T19:03:08.212Z,3.80
2022-09-18T19:08:10.126Z,1.00
2022-09-18T19:13:12.371Z,2.15
2022-09-18T19:18:14.120Z,3.42
2022-09-18T19:23:16.781Z,3.63
2022-09-18T19:28:18.883Z,1.50
2022-09-18T19:33:22.947Z,3.28
2022-09-18T19:38:25.255Z,1.60
2022-09-18T19:43:35.362Z,1.98
2022-09-18T19:48:37.152Z,0.90
2022-09-18T19:53:38.791Z,1.38
2022-09-18T19:58:42.157Z,0.90
2022-09-18T20:03:43.855Z,1.35
2022-09-18T20:08:46.065Z,1.35
2022-09-18T20:13:51.992Z,0.77
2022-09-18T20:18:54.649Z,0.98
2022-09-18T20:23:58.617Z,1.00
2022-09-18T20:29:00.633Z,0.60
2022-09-18T20:34:05.884Z,1.10
2022-09-18T20:39:08.214Z,1.27
2022-09-18T20:44:10.005Z,1.60
2022-09-18T20:49:12.656Z,0.85
2022-09-18T20:54:16.500Z,1.02
2022-09-18T20:59:19.693Z,1.15
2022-09-18T21:04:21.430Z,2.25
2022-09-18T21:09:28.168Z,1.20
2022-09-18T21:14:29.988Z,1.00
2022-09-18T21:19:31.842Z,0.80
2022-09-18T21:24:34.087Z,1.75
2022-09-18T21:29:35.808Z,1.40
2022-09-18T21:34:40.350Z,2.35
2022-09-18T21:39:44.331Z,3.40
2022-09-18T21:44:46.077Z,1.80
2022-09-18T21:49:48.724Z,1.73
2022-09-18T21:54:50.478Z,4.40
2022-09-18T21:59:52.163Z,2.17
2022-09-18T22:04:54.137Z,2.42
2022-09-18T22:09:55.864Z,2.88
2022-09-18T22:14:57.510Z,3.55
2022-09-18T22:19:59.208Z,2.53
2022-09-18T22:25:03.198Z,2.90
2022-09-18T22:30:06.110Z,1.30
2022-09-18T22:35:08.497Z,1.75
2022-09-18T22:40:10.452Z,1.83
2022-09-18T22:45:12.138Z,2.72
2022-09-18T22:50:13.865Z,2.05
2022-09-18T22:55:15.601Z,2.45
2022-09-18T23:00:17.416Z,2.72
2022-09-18T23:05:19.060Z,6.35
2022-09-18T23:10:22.047Z,5.07
2022-09-18T23:15:23.682Z,4.55
2022-09-18T23:20:25.320Z,3.80
2022-09-18T23:25:26.994Z,3.28
2022-09-18T23:30:28.669Z,2.83
2022-09-18T23:35:30.307Z,4.00
2022-09-18T23:40:32.064Z,2.28
2022-09-18T23:45:34.667Z,2.33
2022-09-18T23:50:36.302Z,4.10
2022-09-18T23:55:37.925Z,3.00
